Huntington Bay, New York
Current Conditions -  °F | °C
As of 3:53 AM on Friday 31 Oct 2014 (Local Time) from KFRG Reporting Station
Overcast Overcast  
Wind Chill: 41°   Ceiling: 5000
Heat Index: 45°   Visibility: 10mi
Dew Point: 37°   Wind: 7mph
Humidity: 74%   Direction: 20°NNE
Pressure: 30"   Gusts: NA
Location:  40.8966°N, 73.4362°W
Report Text: KFRG 310753Z AUTO 02006KT 10SM OVC050 07/03 A3000 RMK AO2 SLP160 T00720028
Loading
Personal Weather Stations






























Interactive Weather Map
Tropical Storm Tracking
New forecast layout! Learn more

10-Day Weather Forecast

Advertisements
Track Severe Weather on mobile